sensor_id;sensor_type;location;lat;lon;timestamp;noise_LAeq;noise_LA_min;noise_LA_max;noise_LA01;noise_LA95
76767;Laerm;65707;52.362;6.588;2024-02-14T00:00:00;49.97;35.50;73.79;;
76767;Laerm;65707;52.362;6.588;2024-02-14T00:02:27;50.31;35.19;74.03;;
76767;Laerm;65707;52.362;6.588;2024-02-14T00:04:55;50.14;35.65;71.40;;
76767;Laerm;65707;52.362;6.588;2024-02-14T00:07:22;50.00;34.16;70.02;;
76767;Laerm;65707;52.362;6.588;2024-02-14T00:09:49;49.60;35.97;78.42;;
76767;Laerm;65707;52.362;6.588;2024-02-14T00:12:16;49.55;35.75;69.80;;
76767;Laerm;65707;52.362;6.588;2024-02-14T00:14:42;47.18;34.58;66.86;;
76767;Laerm;65707;52.362;6.588;2024-02-14T00:17:09;50.46;35.14;76.99;;
76767;Laerm;65707;52.362;6.588;2024-02-14T00:19:37;56.40;34.89;82.15;;
76767;Laerm;65707;52.362;6.588;2024-02-14T00:22:06;60.12;36.09;79.58;;
76767;Laerm;65707;52.362;6.588;2024-02-14T00:24:33;62.73;36.12;86.36;;
76767;Laerm;65707;52.362;6.588;2024-02-14T00:27:01;60.89;37.62;80.55;;
76767;Laerm;65707;52.362;6.588;2024-02-14T00:29:28;45.68;36.00;65.87;;
76767;Laerm;65707;52.362;6.588;2024-02-14T00:31:55;58.98;35.30;81.33;;
76767;Laerm;65707;52.362;6.588;2024-02-14T00:34:22;55.47;36.28;77.30;;
76767;Laerm;65707;52.362;6.588;2024-02-14T00:36:49;51.66;35.38;76.47;;
76767;Laerm;65707;52.362;6.588;2024-02-14T00:39:17;59.59;34.76;86.82;;
76767;Laerm;65707;52.362;6.588;2024-02-14T00:41:46;51.49;35.05;73.96;;
76767;Laerm;65707;52.362;6.588;2024-02-14T00:44:13;51.65;34.51;73.06;;
76767;Laerm;65707;52.362;6.588;2024-02-14T00:46:42;61.06;36.40;79.70;;
76767;Laerm;65707;52.362;6.588;2024-02-14T00:49:09;53.60;34.85;76.30;;
76767;Laerm;65707;52.362;6.588;2024-02-14T00:51:36;52.94;34.82;75.91;;
76767;Laerm;65707;52.362;6.588;2024-02-14T00:54:04;53.87;36.48;73.60;;
76767;Laerm;65707;52.362;6.588;2024-02-14T00:56:32;55.47;35.34;77.89;;
76767;Laerm;65707;52.362;6.588;2024-02-14T00:58:59;61.07;37.80;80.88;;
76767;Laerm;65707;52.362;6.588;2024-02-14T01:01:26;64.52;38.54;89.71;;
76767;Laerm;65707;52.362;6.588;2024-02-14T01:03:52;52.67;37.85;73.22;;
76767;Laerm;65707;52.362;6.588;2024-02-14T01:06:19;54.53;35.28;83.59;;
76767;Laerm;65707;52.362;6.588;2024-02-14T01:08:46;61.69;34.61;89.46;;
76767;Laerm;65707;52.362;6.588;2024-02-14T01:11:13;50.56;37.23;73.52;;
76767;Laerm;65707;52.362;6.588;2024-02-14T01:13:41;67.65;37.40;92.87;;
76767;Laerm;65707;52.362;6.588;2024-02-14T01:16:07;60.79;37.16;86.87;;
76767;Laerm;65707;52.362;6.588;2024-02-14T01:18:35;55.78;36.50;79.08;;
76767;Laerm;65707;52.362;6.588;2024-02-14T01:21:02;48.52;35.73;73.91;;
76767;Laerm;65707;52.362;6.588;2024-02-14T01:23:29;54.14;35.38;75.34;;
76767;Laerm;65707;52.362;6.588;2024-02-14T01:25:55;52.13;36.13;76.93;;
76767;Laerm;65707;52.362;6.588;2024-02-14T01:28:22;44.62;34.73;68.37;;
76767;Laerm;65707;52.362;6.588;2024-02-14T01:30:50;49.52;34.29;71.66;;
76767;Laerm;65707;52.362;6.588;2024-02-14T01:33:17;47.33;35.28;69.19;;
76767;Laerm;65707;52.362;6.588;2024-02-14T01:35:44;57.99;36.68;81.62;;
76767;Laerm;65707;52.362;6.588;2024-02-14T01:38:11;65.80;38.36;82.90;;
76767;Laerm;65707;52.362;6.588;2024-02-14T01:40:38;54.07;36.38;79.35;;
76767;Laerm;65707;52.362;6.588;2024-02-14T01:43:05;50.40;35.34;72.16;;
76767;Laerm;65707;52.362;6.588;2024-02-14T01:45:31;56.91;34.65;77.76;;
76767;Laerm;65707;52.362;6.588;2024-02-14T01:48:00;56.28;44.70;79.81;;
76767;Laerm;65707;52.362;6.588;2024-02-14T01:50:28;56.44;41.75;80.79;;
76767;Laerm;65707;52.362;6.588;2024-02-14T01:52:58;56.04;39.60;79.83;;
76767;Laerm;65707;52.362;6.588;2024-02-14T01:55:27;56.80;37.65;78.05;;
76767;Laerm;65707;52.362;6.588;2024-02-14T01:57:55;55.66;37.89;75.58;;
76767;Laerm;65707;52.362;6.588;2024-02-14T02:00:21;59.40;39.31;82.45;;
76767;Laerm;65707;52.362;6.588;2024-02-14T02:02:48;55.02;38.63;75.91;;
76767;Laerm;65707;52.362;6.588;2024-02-14T02:05:16;54.81;37.91;76.30;;
76767;Laerm;65707;52.362;6.588;2024-02-14T02:07:44;57.39;35.79;81.66;;
76767;Laerm;65707;52.362;6.588;2024-02-14T02:10:14;48.26;35.92;71.13;;
76767;Laerm;65707;52.362;6.588;2024-02-14T02:12:40;56.91;35.73;78.95;;
76767;Laerm;65707;52.362;6.588;2024-02-14T02:15:08;52.63;36.28;76.67;;
76767;Laerm;65707;52.362;6.588;2024-02-14T02:17:38;52.59;37.44;76.13;;
76767;Laerm;65707;52.362;6.588;2024-02-14T02:20:07;50.45;36.63;72.75;;
76767;Laerm;65707;52.362;6.588;2024-02-14T02:22:35;54.52;37.01;76.70;;
76767;Laerm;65707;52.362;6.588;2024-02-14T02:25:05;54.66;37.85;81.46;;
76767;Laerm;65707;52.362;6.588;2024-02-14T02:27:33;52.48;36.81;75.38;;
76767;Laerm;65707;52.362;6.588;2024-02-14T02:30:04;52.72;36.96;74.94;;
76767;Laerm;65707;52.362;6.588;2024-02-14T02:32:31;58.26;37.65;79.66;;
76767;Laerm;65707;52.362;6.588;2024-02-14T02:34:58;60.73;38.24;89.55;;
76767;Laerm;65707;52.362;6.588;2024-02-14T02:37:25;56.81;37.83;75.75;;
76767;Laerm;65707;52.362;6.588;2024-02-14T02:39:54;48.69;37.58;71.36;;
76767;Laerm;65707;52.362;6.588;2024-02-14T02:42:22;57.34;38.47;80.77;;
76767;Laerm;65707;52.362;6.588;2024-02-14T02:44:50;58.98;38.22;80.76;;
76767;Laerm;65707;52.362;6.588;2024-02-14T02:47:16;61.62;39.04;86.30;;
76767;Laerm;65707;52.362;6.588;2024-02-14T02:49:44;56.23;38.49;79.01;;
76767;Laerm;65707;52.362;6.588;2024-02-14T02:52:11;59.06;37.30;84.07;;
76767;Laerm;65707;52.362;6.588;2024-02-14T02:54:38;57.34;39.60;78.96;;
76767;Laerm;65707;52.362;6.588;2024-02-14T02:57:07;58.83;39.42;79.79;;
76767;Laerm;65707;52.362;6.588;2024-02-14T02:59:36;55.57;39.72;78.34;;
76767;Laerm;65707;52.362;6.588;2024-02-14T03:02:03;46.60;38.43;65.82;;
76767;Laerm;65707;52.362;6.588;2024-02-14T03:04:33;60.94;40.38;87.16;;
76767;Laerm;65707;52.362;6.588;2024-02-14T03:07:00;56.11;38.58;83.36;;
76767;Laerm;65707;52.362;6.588;2024-02-14T03:09:29;52.23;39.20;78.38;;
76767;Laerm;65707;52.362;6.588;2024-02-14T03:11:56;54.68;38.44;80.61;;
76767;Laerm;65707;52.362;6.588;2024-02-14T03:14:23;60.75;39.12;85.63;;
76767;Laerm;65707;52.362;6.588;2024-02-14T03:16:51;49.56;39.02;70.47;;
76767;Laerm;65707;52.362;6.588;2024-02-14T03:19:18;54.37;39.36;79.92;;
76767;Laerm;65707;52.362;6.588;2024-02-14T03:21:45;49.62;38.06;71.27;;
76767;Laerm;65707;52.362;6.588;2024-02-14T03:24:12;59.30;39.59;80.15;;
76767;Laerm;65707;52.362;6.588;2024-02-14T03:26:39;55.60;38.98;77.39;;
76767;Laerm;65707;52.362;6.588;2024-02-14T03:29:07;52.07;38.43;73.19;;
76767;Laerm;65707;52.362;6.588;2024-02-14T03:31:34;59.78;38.87;88.22;;
76767;Laerm;65707;52.362;6.588;2024-02-14T03:34:02;59.07;39.09;82.93;;
76767;Laerm;65707;52.362;6.588;2024-02-14T03:36:30;50.79;38.13;72.50;;
76767;Laerm;65707;52.362;6.588;2024-02-14T03:38:58;53.89;37.37;77.27;;
76767;Laerm;65707;52.362;6.588;2024-02-14T03:41:26;57.09;38.47;85.57;;
76767;Laerm;65707;52.362;6.588;2024-02-14T03:43:53;51.46;37.96;72.14;;
76767;Laerm;65707;52.362;6.588;2024-02-14T03:46:23;46.96;39.55;66.19;;
76767;Laerm;65707;52.362;6.588;2024-02-14T03:48:50;59.67;37.31;82.67;;
76767;Laerm;65707;52.362;6.588;2024-02-14T03:51:18;52.28;39.17;76.64;;
76767;Laerm;65707;52.362;6.588;2024-02-14T03:53:45;47.57;38.31;67.45;;
76767;Laerm;65707;52.362;6.588;2024-02-14T03:56:12;49.55;38.35;70.03;;
76767;Laerm;65707;52.362;6.588;2024-02-14T03:58:40;48.01;39.53;74.06;;
76767;Laerm;65707;52.362;6.588;2024-02-14T04:01:06;46.55;39.70;66.26;;
76767;Laerm;65707;52.362;6.588;2024-02-14T04:03:34;52.07;39.45;74.73;;
76767;Laerm;65707;52.362;6.588;2024-02-14T04:06:01;51.04;40.15;75.75;;
76767;Laerm;65707;52.362;6.588;2024-02-14T04:08:29;55.10;41.81;76.91;;
76767;Laerm;65707;52.362;6.588;2024-02-14T04:10:55;61.25;41.32;78.85;;
76767;Laerm;65707;52.362;6.588;2024-02-14T04:13:22;53.18;40.88;76.41;;
76767;Laerm;65707;52.362;6.588;2024-02-14T04:15:49;52.80;41.23;73.19;;
76767;Laerm;65707;52.362;6.588;2024-02-14T04:18:16;52.66;40.28;80.34;;
76767;Laerm;65707;52.362;6.588;2024-02-14T04:20:43;51.02;41.43;73.90;;
76767;Laerm;65707;52.362;6.588;2024-02-14T04:23:10;52.71;41.31;74.79;;
76767;Laerm;65707;52.362;6.588;2024-02-14T04:25:38;52.63;41.99;72.40;;
76767;Laerm;65707;52.362;6.588;2024-02-14T04:28:06;52.24;41.71;77.55;;
76767;Laerm;65707;52.362;6.588;2024-02-14T04:30:32;70.80;41.49;89.10;;
76767;Laerm;65707;52.362;6.588;2024-02-14T04:33:00;76.06;42.02;90.77;;
76767;Laerm;65707;52.362;6.588;2024-02-14T04:35:28;50.10;42.33;64.20;;
76767;Laerm;65707;52.362;6.588;2024-02-14T04:37:54;58.38;43.35;77.69;;
76767;Laerm;65707;52.362;6.588;2024-02-14T04:40:22;63.99;42.30;81.26;;
76767;Laerm;65707;52.362;6.588;2024-02-14T04:42:50;51.60;42.27;74.04;;
76767;Laerm;65707;52.362;6.588;2024-02-14T04:45:17;52.34;42.39;80.48;;
76767;Laerm;65707;52.362;6.588;2024-02-14T04:47:44;52.21;42.51;73.97;;
76767;Laerm;65707;52.362;6.588;2024-02-14T04:50:11;49.01;41.38;65.75;;
76767;Laerm;65707;52.362;6.588;2024-02-14T04:52:39;51.32;41.74;74.93;;
76767;Laerm;65707;52.362;6.588;2024-02-14T04:55:07;58.57;42.11;82.37;;
76767;Laerm;65707;52.362;6.588;2024-02-14T04:57:34;53.48;41.77;78.26;;
76767;Laerm;65707;52.362;6.588;2024-02-14T05:00:05;56.81;42.96;70.50;;
76767;Laerm;65707;52.362;6.588;2024-02-14T05:02:34;51.70;42.33;73.29;;
76767;Laerm;65707;52.362;6.588;2024-02-14T05:05:01;50.72;41.30;74.22;;
76767;Laerm;65707;52.362;6.588;2024-02-14T05:07:28;56.77;42.57;74.67;;
76767;Laerm;65707;52.362;6.588;2024-02-14T05:09:55;64.78;42.64;80.27;;
76767;Laerm;65707;52.362;6.588;2024-02-14T05:12:22;51.00;43.26;71.23;;
76767;Laerm;65707;52.362;6.588;2024-02-14T05:14:48;53.49;42.09;74.77;;
76767;Laerm;65707;52.362;6.588;2024-02-14T05:17:17;46.91;42.57;61.43;;
76767;Laerm;65707;52.362;6.588;2024-02-14T05:19:43;55.54;43.59;78.19;;
76767;Laerm;65707;52.362;6.588;2024-02-14T05:22:10;51.13;44.45;76.96;;
76767;Laerm;65707;52.362;6.588;2024-02-14T05:24:37;58.37;44.07;75.46;;
76767;Laerm;65707;52.362;6.588;2024-02-14T05:27:04;56.92;44.44;79.58;;
76767;Laerm;65707;52.362;6.588;2024-02-14T05:29:31;57.75;43.94;72.12;;
76767;Laerm;65707;52.362;6.588;2024-02-14T05:31:58;51.31;44.47;67.67;;
76767;Laerm;65707;52.362;6.588;2024-02-14T05:34:26;53.61;44.66;76.42;;
76767;Laerm;65707;52.362;6.588;2024-02-14T05:36:53;53.17;45.97;73.63;;
76767;Laerm;65707;52.362;6.588;2024-02-14T05:39:19;61.61;46.65;81.06;;
76767;Laerm;65707;52.362;6.588;2024-02-14T05:41:46;66.53;44.96;83.63;;
76767;Laerm;65707;52.362;6.588;2024-02-14T05:44:14;52.09;45.90;66.36;;
76767;Laerm;65707;52.362;6.588;2024-02-14T05:46:41;52.93;44.39;73.70;;
76767;Laerm;65707;52.362;6.588;2024-02-14T05:49:08;53.27;44.61;71.61;;
76767;Laerm;65707;52.362;6.588;2024-02-14T05:51:36;59.87;46.47;78.19;;
76767;Laerm;65707;52.362;6.588;2024-02-14T05:54:03;54.79;45.85;71.95;;
76767;Laerm;65707;52.362;6.588;2024-02-14T05:56:29;58.00;44.79;76.29;;
76767;Laerm;65707;52.362;6.588;2024-02-14T05:58:56;52.09;45.69;75.97;;
76767;Laerm;65707;52.362;6.588;2024-02-14T06:01:23;57.35;46.02;72.17;;
76767;Laerm;65707;52.362;6.588;2024-02-14T06:03:49;53.46;45.65;70.73;;
76767;Laerm;65707;52.362;6.588;2024-02-14T06:06:16;50.98;44.72;68.99;;
76767;Laerm;65707;52.362;6.588;2024-02-14T06:08:44;58.24;46.13;77.07;;
76767;Laerm;65707;52.362;6.588;2024-02-14T06:11:11;66.72;48.11;81.62;;
76767;Laerm;65707;52.362;6.588;2024-02-14T06:13:39;54.95;45.27;78.96;;
76767;Laerm;65707;52.362;6.588;2024-02-14T06:16:06;55.28;47.26;79.07;;
76767;Laerm;65707;52.362;6.588;2024-02-14T06:18:34;54.91;46.30;75.28;;
76767;Laerm;65707;52.362;6.588;2024-02-14T06:21:01;59.92;45.91;80.73;;
76767;Laerm;65707;52.362;6.588;2024-02-14T06:23:27;52.79;46.26;63.66;;
76767;Laerm;65707;52.362;6.588;2024-02-14T06:25:56;60.11;46.67;78.21;;
76767;Laerm;65707;52.362;6.588;2024-02-14T06:28:22;52.06;44.70;70.57;;
76767;Laerm;65707;52.362;6.588;2024-02-14T06:30:49;58.88;45.84;76.42;;
76767;Laerm;65707;52.362;6.588;2024-02-14T06:33:16;54.17;47.12;73.53;;
76767;Laerm;65707;52.362;6.588;2024-02-14T06:35:42;52.63;46.15;70.51;;
76767;Laerm;65707;52.362;6.588;2024-02-14T06:38:09;60.12;46.22;76.90;;
76767;Laerm;65707;52.362;6.588;2024-02-14T06:40:36;63.49;46.12;80.24;;
76767;Laerm;65707;52.362;6.588;2024-02-14T06:43:04;65.84;48.21;82.24;;
76767;Laerm;65707;52.362;6.588;2024-02-14T06:45:32;52.24;46.71;65.11;;
76767;Laerm;65707;52.362;6.588;2024-02-14T06:47:59;55.54;47.18;69.20;;
76767;Laerm;65707;52.362;6.588;2024-02-14T06:50:26;63.21;46.90;81.02;;
76767;Laerm;65707;52.362;6.588;2024-02-14T06:52:54;57.70;47.04;74.53;;
76767;Laerm;65707;52.362;6.588;2024-02-14T06:55:25;59.74;45.78;77.11;;
76767;Laerm;65707;52.362;6.588;2024-02-14T06:57:52;57.88;46.81;76.30;;
76767;Laerm;65707;52.362;6.588;2024-02-14T07:00:21;55.22;46.21;69.35;;
76767;Laerm;65707;52.362;6.588;2024-02-14T07:02:48;52.33;46.10;65.68;;
76767;Laerm;65707;52.362;6.588;2024-02-14T07:05:15;59.63;46.62;75.16;;
76767;Laerm;65707;52.362;6.588;2024-02-14T07:07:42;61.18;46.81;77.29;;
76767;Laerm;65707;52.362;6.588;2024-02-14T07:10:09;63.50;47.33;80.62;;
76767;Laerm;65707;52.362;6.588;2024-02-14T07:12:36;61.13;47.03;81.11;;
76767;Laerm;65707;52.362;6.588;2024-02-14T07:15:04;52.51;46.81;69.84;;
76767;Laerm;65707;52.362;6.588;2024-02-14T07:17:32;53.37;45.98;72.23;;
76767;Laerm;65707;52.362;6.588;2024-02-14T07:19:59;63.25;48.16;81.07;;
76767;Laerm;65707;52.362;6.588;2024-02-14T07:22:26;54.27;46.94;71.80;;
76767;Laerm;65707;52.362;6.588;2024-02-14T07:24:52;60.76;48.87;74.54;;
76767;Laerm;65707;52.362;6.588;2024-02-14T07:27:20;60.98;47.48;89.09;;
76767;Laerm;65707;52.362;6.588;2024-02-14T07:29:47;54.71;46.01;70.47;;
76767;Laerm;65707;52.362;6.588;2024-02-14T07:32:14;54.33;46.66;70.99;;
76767;Laerm;65707;52.362;6.588;2024-02-14T07:34:43;49.86;44.81;64.49;;
76767;Laerm;65707;52.362;6.588;2024-02-14T07:37:10;61.24;46.34;76.50;;
76767;Laerm;65707;52.362;6.588;2024-02-14T07:39:36;51.64;45.95;70.15;;
76767;Laerm;65707;52.362;6.588;2024-02-14T07:42:04;63.38;46.67;80.42;;
76767;Laerm;65707;52.362;6.588;2024-02-14T07:44:31;66.20;46.83;81.10;;
76767;Laerm;65707;52.362;6.588;2024-02-14T07:46:58;50.84;45.89;63.62;;
76767;Laerm;65707;52.362;6.588;2024-02-14T07:49:25;51.33;46.27;68.42;;
76767;Laerm;65707;52.362;6.588;2024-02-14T07:51:53;60.89;45.72;78.73;;
76767;Laerm;65707;52.362;6.588;2024-02-14T07:54:20;61.47;45.95;77.42;;
76767;Laerm;65707;52.362;6.588;2024-02-14T07:56:47;50.52;44.28;66.80;;
76767;Laerm;65707;52.362;6.588;2024-02-14T07:59:13;58.13;44.98;77.09;;
76767;Laerm;65707;52.362;6.588;2024-02-14T08:01:40;57.62;45.60;76.69;;
76767;Laerm;65707;52.362;6.588;2024-02-14T08:04:08;52.57;46.45;67.09;;
76767;Laerm;65707;52.362;6.588;2024-02-14T08:06:35;50.25;44.50;63.86;;
76767;Laerm;65707;52.362;6.588;2024-02-14T08:09:03;57.56;45.18;76.89;;
76767;Laerm;65707;52.362;6.588;2024-02-14T08:11:32;62.72;45.21;81.93;;
76767;Laerm;65707;52.362;6.588;2024-02-14T08:13:58;50.31;44.94;62.78;;
76767;Laerm;65707;52.362;6.588;2024-02-14T08:16:25;52.96;45.73;68.34;;
76767;Laerm;65707;52.362;6.588;2024-02-14T08:18:52;51.59;45.31;68.05;;
76767;Laerm;65707;52.362;6.588;2024-02-14T08:21:24;59.70;45.53;80.40;;
76767;Laerm;65707;52.362;6.588;2024-02-14T08:23:51;49.85;43.75;61.10;;
76767;Laerm;65707;52.362;6.588;2024-02-14T08:26:20;51.39;45.50;66.77;;
76767;Laerm;65707;52.362;6.588;2024-02-14T08:28:47;55.64;46.38;72.73;;
76767;Laerm;65707;52.362;6.588;2024-02-14T08:31:14;55.06;44.78;70.49;;
76767;Laerm;65707;52.362;6.588;2024-02-14T08:33:41;50.87;44.78;60.83;;
76767;Laerm;65707;52.362;6.588;2024-02-14T08:36:08;53.16;44.51;71.33;;
76767;Laerm;65707;52.362;6.588;2024-02-14T08:38:35;58.10;44.83;76.71;;
76767;Laerm;65707;52.362;6.588;2024-02-14T08:41:02;63.08;45.82;80.69;;
76767;Laerm;65707;52.362;6.588;2024-02-14T08:43:30;65.79;45.48;83.83;;
76767;Laerm;65707;52.362;6.588;2024-02-14T08:45:57;70.02;44.82;84.76;;
76767;Laerm;65707;52.362;6.588;2024-02-14T08:48:24;67.69;45.83;85.66;;
76767;Laerm;65707;52.362;6.588;2024-02-14T08:50:53;61.71;45.24;80.22;;
76767;Laerm;65707;52.362;6.588;2024-02-14T08:53:19;60.41;44.80;75.97;;
76767;Laerm;65707;52.362;6.588;2024-02-14T08:55:46;56.51;43.89;72.39;;
76767;Laerm;65707;52.362;6.588;2024-02-14T08:58:13;49.89;43.07;68.24;;
76767;Laerm;65707;52.362;6.588;2024-02-14T09:00:41;55.89;44.56;70.89;;
76767;Laerm;65707;52.362;6.588;2024-02-14T09:03:07;68.99;44.37;87.24;;
76767;Laerm;65707;52.362;6.588;2024-02-14T09:05:34;50.96;44.84;65.87;;
76767;Laerm;65707;52.362;6.588;2024-02-14T09:08:03;58.19;44.68;74.73;;
76767;Laerm;65707;52.362;6.588;2024-02-14T09:10:29;57.26;44.14;75.42;;
76767;Laerm;65707;52.362;6.588;2024-02-14T09:12:56;64.25;46.65;81.69;;
76767;Laerm;65707;52.362;6.588;2024-02-14T09:15:23;49.81;44.57;59.11;;
76767;Laerm;65707;52.362;6.588;2024-02-14T09:17:51;51.42;44.07;68.29;;
76767;Laerm;65707;52.362;6.588;2024-02-14T09:20:18;61.83;45.32;80.11;;
76767;Laerm;65707;52.362;6.588;2024-02-14T09:22:45;49.53;45.23;60.35;;
76767;Laerm;65707;52.362;6.588;2024-02-14T09:25:12;57.39;44.79;75.46;;
76767;Laerm;65707;52.362;6.588;2024-02-14T09:27:39;49.20;44.64;63.01;;
76767;Laerm;65707;52.362;6.588;2024-02-14T09:30:07;54.44;45.39;71.60;;
76767;Laerm;65707;52.362;6.588;2024-02-14T09:32:34;54.51;44.32;70.48;;
76767;Laerm;65707;52.362;6.588;2024-02-14T09:35:02;50.10;45.40;57.00;;
76767;Laerm;65707;52.362;6.588;2024-02-14T09:37:32;66.69;45.16;81.99;;
76767;Laerm;65707;52.362;6.588;2024-02-14T09:39:59;56.03;44.06;80.11;;
76767;Laerm;65707;52.362;6.588;2024-02-14T09:42:33;60.21;44.82;79.36;;
76767;Laerm;65707;52.362;6.588;2024-02-14T09:45:01;52.44;44.75;74.60;;
76767;Laerm;65707;52.362;6.588;2024-02-14T09:47:30;52.35;44.46;72.64;;
76767;Laerm;65707;52.362;6.588;2024-02-14T09:50:00;53.36;44.80;71.52;;
76767;Laerm;65707;52.362;6.588;2024-02-14T09:52:32;60.98;44.33;80.38;;
76767;Laerm;65707;52.362;6.588;2024-02-14T09:55:00;58.30;44.23;75.20;;
76767;Laerm;65707;52.362;6.588;2024-02-14T09:57:29;58.11;44.27;76.87;;
76767;Laerm;65707;52.362;6.588;2024-02-14T10:00:00;57.16;45.71;72.76;;
76767;Laerm;65707;52.362;6.588;2024-02-14T10:02:26;50.50;43.79;65.16;;
76767;Laerm;65707;52.362;6.588;2024-02-14T10:04:54;52.86;44.55;75.86;;
76767;Laerm;65707;52.362;6.588;2024-02-14T10:07:22;57.24;44.17;76.57;;
76767;Laerm;65707;52.362;6.588;2024-02-14T10:09:50;64.64;46.47;82.79;;
76767;Laerm;65707;52.362;6.588;2024-02-14T10:12:17;50.35;45.11;60.73;;
76767;Laerm;65707;52.362;6.588;2024-02-14T10:14:44;73.00;44.08;84.98;;
76767;Laerm;65707;52.362;6.588;2024-02-14T10:17:18;55.93;44.51;79.10;;
76767;Laerm;65707;52.362;6.588;2024-02-14T10:19:56;65.14;44.22;83.30;;
76767;Laerm;65707;52.362;6.588;2024-02-14T10:22:22;52.33;45.57;72.06;;
76767;Laerm;65707;52.362;6.588;2024-02-14T10:24:51;57.41;44.61;76.90;;
76767;Laerm;65707;52.362;6.588;2024-02-14T10:27:18;52.73;44.23;70.68;;
76767;Laerm;65707;52.362;6.588;2024-02-14T10:29:47;56.49;45.24;73.99;;
76767;Laerm;65707;52.362;6.588;2024-02-14T10:32:15;52.72;44.45;69.07;;
76767;Laerm;65707;52.362;6.588;2024-02-14T10:34:43;50.96;44.54;63.47;;
76767;Laerm;65707;52.362;6.588;2024-02-14T10:37:14;57.26;46.03;76.87;;
76767;Laerm;65707;52.362;6.588;2024-02-14T10:39:43;68.26;45.63;82.86;;
76767;Laerm;65707;52.362;6.588;2024-02-14T10:42:15;52.18;45.72;69.08;;
76767;Laerm;65707;52.362;6.588;2024-02-14T10:44:42;54.54;45.38;74.68;;
76767;Laerm;65707;52.362;6.588;2024-02-14T10:47:14;57.73;45.93;82.69;;
76767;Laerm;65707;52.362;6.588;2024-02-14T10:49:48;72.28;46.73;85.22;;
76767;Laerm;65707;52.362;6.588;2024-02-14T10:52:16;63.51;47.01;82.49;;
76767;Laerm;65707;52.362;6.588;2024-02-14T10:54:54;52.16;45.57;64.53;;
76767;Laerm;65707;52.362;6.588;2024-02-14T10:57:24;58.39;44.76;77.14;;
76767;Laerm;65707;52.362;6.588;2024-02-14T10:59:53;56.42;44.25;73.52;;
76767;Laerm;65707;52.362;6.588;2024-02-14T11:02:22;52.68;45.83;69.44;;
76767;Laerm;65707;52.362;6.588;2024-02-14T11:04:49;56.11;46.30;70.31;;
76767;Laerm;65707;52.362;6.588;2024-02-14T11:07:20;58.04;45.61;76.35;;
76767;Laerm;65707;52.362;6.588;2024-02-14T11:09:52;63.73;45.46;82.26;;
76767;Laerm;65707;52.362;6.588;2024-02-14T11:12:32;51.27;44.41;62.89;;
76767;Laerm;65707;52.362;6.588;2024-02-14T11:15:00;51.48;45.79;62.13;;
76767;Laerm;65707;52.362;6.588;2024-02-14T11:17:26;51.73;45.16;64.74;;
76767;Laerm;65707;52.362;6.588;2024-02-14T11:19:53;50.99;45.45;59.90;;
76767;Laerm;65707;52.362;6.588;2024-02-14T11:22:21;51.43;45.27;68.09;;
76767;Laerm;65707;52.362;6.588;2024-02-14T11:24:49;51.45;45.66;65.82;;
76767;Laerm;65707;52.362;6.588;2024-02-14T11:27:18;55.40;45.04;73.58;;
76767;Laerm;65707;52.362;6.588;2024-02-14T11:29:53;56.78;45.57;73.68;;
76767;Laerm;65707;52.362;6.588;2024-02-14T11:32:22;52.29;45.97;63.81;;
76767;Laerm;65707;52.362;6.588;2024-02-14T11:34:53;54.89;44.94;71.13;;
76767;Laerm;65707;52.362;6.588;2024-02-14T11:37:27;64.01;46.24;81.73;;
76767;Laerm;65707;52.362;6.588;2024-02-14T11:39:54;66.23;44.27;83.91;;
76767;Laerm;65707;52.362;6.588;2024-02-14T11:42:23;52.91;45.65;69.11;;
76767;Laerm;65707;52.362;6.588;2024-02-14T11:44:51;50.76;44.96;61.18;;
76767;Laerm;65707;52.362;6.588;2024-02-14T11:47:20;65.78;45.42;81.99;;
76767;Laerm;65707;52.362;6.588;2024-02-14T11:49:47;51.71;44.68;64.21;;
76767;Laerm;65707;52.362;6.588;2024-02-14T11:52:14;64.17;44.48;81.21;;
76767;Laerm;65707;52.362;6.588;2024-02-14T11:54:46;59.70;43.67;75.30;;
76767;Laerm;65707;52.362;6.588;2024-02-14T11:57:17;52.64;44.77;71.30;;
76767;Laerm;65707;52.362;6.588;2024-02-14T11:59:44;49.71;44.52;60.94;;
76767;Laerm;65707;52.362;6.588;2024-02-14T12:02:14;56.86;44.93;71.34;;
76767;Laerm;65707;52.362;6.588;2024-02-14T12:04:45;50.89;43.51;65.38;;
76767;Laerm;65707;52.362;6.588;2024-02-14T12:07:12;67.46;44.68;80.37;;
76767;Laerm;65707;52.362;6.588;2024-02-14T12:09:39;61.20;44.51;80.98;;
76767;Laerm;65707;52.362;6.588;2024-02-14T12:12:08;57.12;44.96;73.94;;
76767;Laerm;65707;52.362;6.588;2024-02-14T12:14:35;72.27;46.21;85.92;;
76767;Laerm;65707;52.362;6.588;2024-02-14T12:17:02;51.57;45.67;60.57;;
76767;Laerm;65707;52.362;6.588;2024-02-14T12:19:30;51.02;44.21;65.59;;
76767;Laerm;65707;52.362;6.588;2024-02-14T12:21:59;61.85;44.14;81.48;;
76767;Laerm;65707;52.362;6.588;2024-02-14T12:24:27;57.75;45.03;75.82;;
76767;Laerm;65707;52.362;6.588;2024-02-14T12:26:55;50.13;44.69;62.88;;
76767;Laerm;65707;52.362;6.588;2024-02-14T12:29:23;51.00;44.36;70.41;;
76767;Laerm;65707;52.362;6.588;2024-02-14T12:31:50;57.06;46.48;71.55;;
76767;Laerm;65707;52.362;6.588;2024-02-14T12:34:17;50.89;44.69;68.63;;
76767;Laerm;65707;52.362;6.588;2024-02-14T12:36:47;48.93;44.49;63.75;;
76767;Laerm;65707;52.362;6.588;2024-02-14T12:39:14;67.42;45.53;85.26;;
76767;Laerm;65707;52.362;6.588;2024-02-14T12:41:40;64.60;46.28;82.00;;
76767;Laerm;65707;52.362;6.588;2024-02-14T12:44:07;57.78;46.60;77.53;;
76767;Laerm;65707;52.362;6.588;2024-02-14T12:46:34;53.11;46.12;69.59;;
76767;Laerm;65707;52.362;6.588;2024-02-14T12:49:03;50.87;46.04;63.31;;
76767;Laerm;65707;52.362;6.588;2024-02-14T12:51:30;60.11;46.07;81.42;;
76767;Laerm;65707;52.362;6.588;2024-02-14T12:53:58;56.92;45.25;74.89;;
76767;Laerm;65707;52.362;6.588;2024-02-14T12:56:25;57.89;46.48;75.59;;
76767;Laerm;65707;52.362;6.588;2024-02-14T12:58:52;52.99;45.85;70.59;;
76767;Laerm;65707;52.362;6.588;2024-02-14T13:01:18;58.26;46.14;75.22;;
76767;Laerm;65707;52.362;6.588;2024-02-14T13:03:45;54.69;46.73;75.64;;
76767;Laerm;65707;52.362;6.588;2024-02-14T13:06:12;51.52;45.29;67.10;;
76767;Laerm;65707;52.362;6.588;2024-02-14T13:08:39;58.11;45.08;76.76;;
76767;Laerm;65707;52.362;6.588;2024-02-14T13:11:07;59.01;45.77;77.60;;
76767;Laerm;65707;52.362;6.588;2024-02-14T13:13:34;63.20;46.48;80.10;;
76767;Laerm;65707;52.362;6.588;2024-02-14T13:16:01;51.58;44.83;70.52;;
76767;Laerm;65707;52.362;6.588;2024-02-14T13:18:28;50.95;45.35;67.20;;
76767;Laerm;65707;52.362;6.588;2024-02-14T13:20:55;60.30;45.39;81.09;;
76767;Laerm;65707;52.362;6.588;2024-02-14T13:23:24;51.51;46.30;66.76;;
76767;Laerm;65707;52.362;6.588;2024-02-14T13:25:51;58.58;47.35;75.99;;
76767;Laerm;65707;52.362;6.588;2024-02-14T13:28:19;55.26;47.02;73.66;;
76767;Laerm;65707;52.362;6.588;2024-02-14T13:30:46;58.37;46.57;73.91;;
76767;Laerm;65707;52.362;6.588;2024-02-14T13:33:13;54.39;45.37;73.99;;
76767;Laerm;65707;52.362;6.588;2024-02-14T13:35:40;52.75;44.43;67.88;;
76767;Laerm;65707;52.362;6.588;2024-02-14T13:38:07;67.38;45.99;80.32;;
76767;Laerm;65707;52.362;6.588;2024-02-14T13:40:34;62.44;45.67;80.56;;
76767;Laerm;65707;52.362;6.588;2024-02-14T13:43:01;65.99;45.81;81.19;;
76767;Laerm;65707;52.362;6.588;2024-02-14T13:45:41;53.02;47.83;70.08;;